This is the latest recevied weather packets stored in our database for station/object IK1AMC-3. If no packets are shown the sender has not sent any weather packets the latest 10 day(s).
| Time | Temp. | Humidity | Pressure | Rain* | Wind** | Luminosity | Snow |
|---|---|---|---|---|---|---|---|
| 1777893545 | 20° C | 64% | 1018.3 hPa | - | - | - | - |
| 1777892343 | 20° C | 66% | 1018.4 hPa | - | - | - | - |
| 1777891142 | 20° C | 64% | 1018.5 hPa | - | - | - | - |
| 1777889941 | 19.44° C | 65% | 1018.4 hPa | - | - | - | - |
| 1777888739 | 18.89° C | 68% | 1018.5 hPa | - | - | - | - |
| 1777887538 | 18.33° C | 71% | 1018.7 hPa | - | - | - | - |
| 1777886337 | 18.33° C | 72% | 1018.6 hPa | - | - | - | - |
| 1777885135 | 17.78° C | 73% | 1018.5 hPa | - | - | - | - |
| 1777883934 | 18.33° C | 70% | 1018.4 hPa | - | - | - | - |
| 1777882733 | 17.78° C | 74% | 1018.5 hPa | - | - | - | - |
| 1777881531 | 18.33° C | 70% | 1018.4 hPa | - | - | - | - |
| 1777880330 | 17.78° C | 66% | 1018.2 hPa | - | - | - | - |
| 1777879129 | 17.22° C | 67% | 1018 hPa | - | - | - | - |
| 1777877927 | 17.22° C | 67% | 1017.9 hPa | - | - | - | - |
| 1777876726 | 16.67° C | 72% | 1017.9 hPa | - | - | - | - |
| 1777875525 | 16.67° C | 72% | 1017.4 hPa | - | - | - | - |
| 1777874323 | 16.67° C | 72% | 1017.3 hPa | - | - | - | - |
| 1777873122 | 16.11° C | 73% | 1017.4 hPa | - | - | - | - |
| 1777871921 | 16.11° C | 73% | 1017.3 hPa | - | - | - | - |
| 1777870719 | 16.11° C | 72% | 1017.4 hPa | - | - | - | - |
| 1777869518 | 16.11° C | 72% | 1017.4 hPa | - | - | - | - |
| 1777868317 | 15.56° C | 74% | 1017.2 hPa | - | - | - | - |
| 1777867115 | 15.56° C | 74% | 1017.2 hPa | - | - | - | - |
| 1777865914 | 15.56° C | 73% | 1017.1 hPa | - | - | - | - |
| 1777864713 | 15.56° C | 74% | 1017.1 hPa | - | - | - | - |
* Rain since midnight (hover to see other rain measurements)
** Current wind speed in m/s (hover to see current wind gust speed)